createdAt,value
2022-09-14T00:00:02.807Z,18.48
2022-09-14T00:02:43.225Z,18.50
2022-09-14T00:04:57.900Z,18.57
2022-09-14T00:07:11.679Z,18.62
2022-09-14T00:09:27.460Z,18.64
2022-09-14T00:11:42.595Z,18.58
2022-09-14T00:13:57.212Z,18.55
2022-09-14T00:16:16.894Z,18.51
2022-09-14T00:18:30.559Z,18.47
2022-09-14T00:20:44.162Z,18.41
2022-09-14T00:22:57.736Z,18.33
2022-09-14T00:25:12.747Z,18.24
2022-09-14T00:27:26.335Z,18.17
2022-09-14T00:29:40.057Z,18.06
2022-09-14T00:31:53.746Z,17.97
2022-09-14T00:34:08.305Z,17.92
2022-09-14T00:36:23.868Z,17.84
2022-09-14T00:38:37.675Z,17.77
2022-09-14T00:40:59.773Z,17.74
2022-09-14T00:43:20.190Z,17.73
2022-09-14T00:45:34.578Z,17.74
2022-09-14T00:47:51.547Z,17.71
2022-09-14T00:50:08.426Z,17.71
2022-09-14T00:52:25.721Z,17.68
2022-09-14T00:54:39.921Z,17.69
2022-09-14T00:56:55.201Z,17.73
2022-09-14T00:59:16.086Z,17.75
2022-09-14T01:01:30.284Z,17.74
2022-09-14T01:03:44.071Z,17.72
2022-09-14T01:06:08.311Z,17.70
2022-09-14T01:08:39.670Z,17.69
2022-09-14T01:11:09.401Z,17.69
2022-09-14T01:13:34.431Z,17.71
2022-09-14T01:15:57.721Z,17.69
2022-09-14T01:18:17.749Z,17.66
2022-09-14T01:20:37.961Z,17.64
2022-09-14T01:22:56.741Z,17.61
2022-09-14T01:25:26.073Z,17.59
2022-09-14T01:27:43.103Z,17.55
2022-09-14T01:30:05.197Z,17.49
2022-09-14T01:32:25.593Z,17.44
2022-09-14T01:34:44.139Z,17.44
2022-09-14T01:37:02.911Z,17.45
2022-09-14T01:39:19.104Z,17.45
2022-09-14T01:41:35.265Z,17.45
2022-09-14T01:43:52.988Z,17.43
2022-09-14T01:46:14.085Z,17.40
2022-09-14T01:48:34.540Z,17.39
2022-09-14T01:50:50.314Z,17.41
2022-09-14T01:53:09.996Z,17.45
2022-09-14T01:55:29.271Z,17.46
2022-09-14T01:57:46.640Z,17.46
2022-09-14T02:00:05.034Z,17.45
2022-09-14T02:02:22.267Z,17.42
2022-09-14T02:04:42.938Z,17.39
2022-09-14T02:06:57.805Z,17.36
2022-09-14T02:09:13.872Z,17.36
2022-09-14T02:11:27.746Z,17.38
2022-09-14T02:13:41.387Z,17.39
2022-09-14T02:15:55.877Z,17.38
2022-09-14T02:18:09.850Z,17.38
2022-09-14T02:20:30.241Z,17.39
2022-09-14T02:22:43.865Z,17.40
2022-09-14T02:24:58.161Z,17.39
2022-09-14T02:27:12.920Z,17.39
2022-09-14T02:29:26.650Z,17.39
2022-09-14T02:31:51.447Z,17.39
2022-09-14T02:34:12.927Z,17.38
2022-09-14T02:36:36.302Z,17.36
2022-09-14T02:38:54.937Z,17.37
2022-09-14T02:41:15.985Z,17.38
2022-09-14T02:43:39.986Z,17.37
2022-09-14T02:46:05.318Z,17.32
2022-09-14T02:48:26.508Z,17.25
2022-09-14T02:50:44.569Z,17.19
2022-09-14T02:53:08.482Z,17.15
2022-09-14T02:55:26.975Z,17.12
2022-09-14T02:58:07.808Z,17.11
2022-09-14T03:00:22.198Z,17.08
2022-09-14T03:02:35.759Z,17.06
2022-09-14T03:04:49.368Z,17.06
2022-09-14T03:07:03.110Z,17.05
2022-09-14T03:09:16.794Z,17.04
2022-09-14T03:11:30.283Z,17.03
2022-09-14T03:13:44.197Z,17.00
2022-09-14T03:15:57.996Z,16.98
2022-09-14T03:18:14.462Z,16.98
2022-09-14T03:20:30.446Z,16.99
2022-09-14T03:22:44.417Z,17.01
2022-09-14T03:24:58.174Z,17.01
2022-09-14T03:27:11.966Z,17.02
2022-09-14T03:29:26.080Z,17.05
2022-09-14T03:31:40.406Z,17.06
2022-09-14T03:33:56.290Z,17.08
2022-09-14T03:36:16.893Z,17.10
2022-09-14T03:38:31.412Z,17.12
2022-09-14T03:40:45.334Z,17.14
2022-09-14T03:42:59.216Z,17.15
2022-09-14T03:45:14.398Z,17.16
2022-09-14T03:47:27.958Z,17.16
2022-09-14T03:49:41.888Z,17.18
2022-09-14T03:51:59.689Z,17.20
2022-09-14T03:54:14.091Z,17.19
2022-09-14T03:56:28.716Z,17.15
2022-09-14T03:58:43.128Z,17.13
2022-09-14T04:00:57.146Z,17.12
2022-09-14T04:03:11.124Z,17.09
2022-09-14T04:05:25.155Z,17.07
2022-09-14T04:07:39.345Z,17.07
2022-09-14T04:09:53.418Z,17.07
2022-09-14T04:12:08.379Z,17.06
2022-09-14T04:14:22.192Z,17.04
2022-09-14T04:16:36.061Z,17.03
2022-09-14T04:18:50.192Z,17.03
2022-09-14T04:21:08.492Z,17.03
2022-09-14T04:23:22.966Z,16.98
2022-09-14T04:25:36.754Z,16.93
2022-09-14T04:28:04.156Z,16.87
2022-09-14T04:30:24.908Z,16.82
2022-09-14T04:32:38.857Z,16.78
2022-09-14T04:34:53.013Z,16.74
2022-09-14T04:37:06.724Z,16.68
2022-09-14T04:39:20.788Z,16.64
2022-09-14T04:41:35.212Z,16.59
2022-09-14T04:43:50.967Z,16.55
2022-09-14T04:46:08.788Z,16.50
2022-09-14T04:48:22.805Z,16.46
2022-09-14T04:50:36.397Z,16.41
2022-09-14T04:52:49.936Z,16.38
2022-09-14T04:55:03.817Z,16.34
2022-09-14T04:57:17.412Z,16.31
2022-09-14T04:59:31.078Z,16.27
2022-09-14T05:01:46.769Z,16.25
2022-09-14T05:04:02.082Z,16.24
2022-09-14T05:06:17.132Z,16.21
2022-09-14T05:08:30.880Z,16.19
2022-09-14T05:10:44.424Z,16.18
2022-09-14T05:12:57.962Z,16.17
2022-09-14T05:15:14.341Z,16.18
2022-09-14T05:17:27.984Z,16.18
2022-09-14T05:19:41.639Z,16.20
2022-09-14T05:21:55.631Z,16.22
2022-09-14T05:24:11.373Z,16.23
2022-09-14T05:26:25.073Z,16.22
2022-09-14T05:28:40.152Z,16.23
2022-09-14T05:30:53.850Z,16.24
2022-09-14T05:33:07.482Z,16.27
2022-09-14T05:35:21.374Z,16.25
2022-09-14T05:37:35.032Z,16.21
2022-09-14T05:39:48.602Z,16.16
2022-09-14T05:42:02.284Z,16.13
2022-09-14T05:44:15.923Z,16.12
2022-09-14T05:46:29.711Z,16.10
2022-09-14T05:48:44.414Z,16.10
2022-09-14T05:51:04.894Z,16.08
2022-09-14T05:53:18.999Z,16.10
2022-09-14T05:55:32.916Z,16.10
2022-09-14T05:57:46.412Z,16.11
2022-09-14T05:59:59.953Z,16.13
2022-09-14T06:02:17.546Z,16.15
2022-09-14T06:04:32.228Z,16.16
2022-09-14T06:06:56.164Z,16.19
2022-09-14T06:09:20.106Z,16.19
2022-09-14T06:11:37.542Z,16.19
2022-09-14T06:13:51.845Z,16.19
2022-09-14T06:16:08.134Z,16.19
2022-09-14T06:18:21.792Z,16.23
2022-09-14T06:20:35.366Z,16.24
2022-09-14T06:22:49.147Z,16.26
2022-09-14T06:25:02.807Z,16.28
2022-09-14T06:27:16.787Z,16.28
2022-09-14T06:29:30.570Z,16.28
2022-09-14T06:31:44.181Z,16.28
2022-09-14T06:33:59.160Z,16.28
2022-09-14T06:36:15.251Z,16.28
2022-09-14T06:38:29.277Z,16.28
2022-09-14T06:40:43.050Z,16.30
2022-09-14T06:42:56.646Z,16.32
2022-09-14T06:45:11.278Z,16.34
2022-09-14T06:47:25.287Z,16.35
2022-09-14T06:49:38.960Z,16.36
2022-09-14T06:51:55.993Z,16.36
2022-09-14T06:54:10.517Z,16.36
2022-09-14T06:56:24.968Z,16.36
2022-09-14T06:58:39.632Z,16.35
2022-09-14T07:00:53.329Z,16.33
2022-09-14T07:03:07.818Z,16.33
2022-09-14T07:05:23.600Z,16.33
2022-09-14T07:07:37.282Z,16.33
2022-09-14T07:09:50.827Z,16.33
2022-09-14T07:12:04.507Z,16.33
2022-09-14T07:14:21.455Z,16.32
2022-09-14T07:16:36.783Z,16.32
2022-09-14T07:18:50.486Z,16.34
2022-09-14T07:21:08.499Z,16.33
2022-09-14T07:23:22.280Z,16.32
2022-09-14T07:25:35.912Z,16.31
2022-09-14T07:27:49.579Z,16.32
2022-09-14T07:30:03.287Z,16.33
2022-09-14T07:32:16.969Z,16.33
2022-09-14T07:34:31.046Z,16.33
2022-09-14T07:36:45.352Z,16.33
2022-09-14T07:38:59.417Z,16.33
2022-09-14T07:41:13.555Z,16.33
2022-09-14T07:43:27.073Z,16.33
2022-09-14T07:45:41.968Z,16.33
2022-09-14T07:47:55.954Z,16.33
2022-09-14T07:50:10.114Z,16.33
2022-09-14T07:52:23.782Z,16.34
2022-09-14T07:54:37.668Z,16.34
2022-09-14T07:56:51.871Z,16.33
2022-09-14T08:01:40.469Z,16.33
2022-09-14T08:03:54.100Z,16.33
2022-09-14T08:06:10.035Z,16.34
2022-09-14T08:08:23.190Z,16.33
2022-09-14T08:10:38.236Z,16.33
2022-09-14T08:12:53.548Z,16.33
2022-09-14T08:15:06.643Z,16.32
2022-09-14T08:17:19.696Z,16.30
2022-09-14T08:19:33.075Z,16.28
2022-09-14T08:21:47.465Z,16.29
2022-09-14T08:24:00.901Z,16.28
2022-09-14T08:26:15.210Z,16.29
2022-09-14T08:28:28.203Z,16.29
2022-09-14T08:30:42.629Z,16.29
2022-09-14T08:32:58.951Z,16.26
2022-09-14T08:35:15.324Z,16.25
2022-09-14T08:37:28.766Z,16.24
2022-09-14T08:39:42.154Z,16.25
2022-09-14T08:42:00.003Z,16.25
2022-09-14T08:44:21.633Z,16.25
2022-09-14T08:46:37.684Z,16.26
2022-09-14T08:48:52.680Z,16.27
2022-09-14T08:51:06.910Z,16.26
2022-09-14T08:53:20.242Z,16.23
2022-09-14T08:55:41.600Z,16.21
2022-09-14T08:57:59.711Z,16.20
2022-09-14T09:00:20.774Z,16.19
2022-09-14T09:03:03.442Z,16.19
2022-09-14T09:05:38.700Z,16.19
2022-09-14T09:07:59.526Z,16.17
2022-09-14T09:10:16.000Z,16.17
2022-09-14T09:12:33.494Z,16.17
2022-09-14T09:14:51.930Z,16.17
2022-09-14T09:17:08.079Z,16.19
2022-09-14T09:19:28.800Z,16.18
2022-09-14T09:21:45.738Z,16.16
2022-09-14T09:24:02.769Z,16.14
2022-09-14T09:26:26.872Z,16.13
2022-09-14T09:28:44.271Z,16.13
2022-09-14T09:30:58.126Z,16.12
2022-09-14T09:33:16.000Z,16.11
2022-09-14T09:35:41.292Z,16.11
2022-09-14T09:38:03.264Z,16.10
2022-09-14T09:40:24.300Z,16.11
2022-09-14T09:42:37.534Z,16.11
2022-09-14T09:45:05.654Z,16.11
2022-09-14T09:47:19.108Z,16.11
2022-09-14T09:49:36.684Z,16.10
2022-09-14T09:51:50.855Z,16.10
2022-09-14T09:54:24.603Z,16.09
2022-09-14T09:56:40.709Z,16.09
2022-09-14T09:58:54.653Z,16.10
2022-09-14T10:01:12.628Z,16.10
2022-09-14T10:03:35.407Z,16.10
2022-09-14T10:05:48.642Z,16.09
2022-09-14T10:08:06.899Z,16.08
2022-09-14T10:10:23.178Z,16.08
2022-09-14T10:12:37.793Z,16.05
2022-09-14T10:14:54.032Z,16.04
2022-09-14T10:17:24.788Z,16.02
2022-09-14T10:19:40.317Z,15.99
2022-09-14T10:22:19.286Z,15.98
2022-09-14T10:24:36.375Z,15.95
2022-09-14T10:26:49.644Z,15.95
2022-09-14T10:29:30.315Z,15.95
2022-09-14T10:31:45.032Z,15.94
2022-09-14T10:34:00.499Z,15.93
2022-09-14T10:36:24.724Z,15.93
2022-09-14T10:38:43.581Z,15.93
2022-09-14T10:41:06.952Z,15.94
2022-09-14T10:43:30.168Z,15.92
2022-09-14T10:45:49.477Z,15.91
2022-09-14T10:48:22.745Z,15.91
2022-09-14T10:50:48.346Z,15.91
2022-09-14T10:53:13.685Z,15.93
2022-09-14T10:55:43.360Z,15.94
2022-09-14T10:58:03.657Z,15.93
2022-09-14T11:00:22.964Z,15.94
2022-09-14T11:02:56.560Z,15.94
2022-09-14T11:05:18.845Z,15.93
2022-09-14T11:07:40.419Z,15.92
2022-09-14T11:10:00.628Z,15.92
2022-09-14T11:12:22.890Z,15.92
2022-09-14T11:14:58.963Z,15.93
2022-09-14T11:17:28.243Z,15.92
2022-09-14T11:19:55.676Z,15.94
2022-09-14T11:22:15.784Z,15.94
2022-09-14T11:24:37.456Z,15.94
2022-09-14T11:26:56.834Z,15.95
2022-09-14T11:29:21.932Z,15.94
2022-09-14T11:31:41.863Z,15.93
2022-09-14T11:34:00.418Z,15.93
2022-09-14T11:36:19.260Z,15.92
2022-09-14T11:38:45.296Z,15.92
2022-09-14T11:41:05.485Z,15.93
2022-09-14T11:43:22.195Z,15.94
2022-09-14T11:45:39.855Z,15.96
2022-09-14T11:47:58.521Z,15.96
2022-09-14T11:50:20.621Z,15.96
2022-09-14T11:52:36.079Z,15.93
2022-09-14T11:54:50.253Z,15.92
2022-09-14T11:57:06.158Z,15.91
2022-09-14T11:59:51.866Z,15.90
2022-09-14T12:02:55.867Z,15.87
2022-09-14T12:05:33.335Z,15.84
2022-09-14T12:08:41.889Z,15.81
2022-09-14T12:11:27.255Z,15.79
2022-09-14T12:13:40.983Z,15.76
2022-09-14T12:16:04.243Z,15.76
2022-09-14T12:18:28.073Z,15.77
2022-09-14T12:20:53.891Z,15.77
2022-09-14T12:23:22.123Z,15.77
2022-09-14T12:25:35.647Z,15.75
2022-09-14T12:27:51.413Z,15.74
2022-09-14T12:30:04.993Z,15.71
2022-09-14T12:32:42.567Z,15.69
2022-09-14T12:35:31.511Z,15.67
2022-09-14T12:37:44.788Z,15.67
2022-09-14T12:40:38.384Z,15.67
2022-09-14T12:42:51.586Z,15.67
2022-09-14T12:45:24.745Z,15.69
2022-09-14T12:47:56.108Z,15.71
2022-09-14T12:50:18.973Z,15.73
2022-09-14T12:52:47.652Z,15.75
2022-09-14T12:55:17.858Z,15.76
2022-09-14T12:57:41.119Z,15.73
2022-09-14T13:00:02.375Z,15.74
2022-09-14T13:02:44.486Z,15.74
2022-09-14T13:05:01.644Z,15.75
2022-09-14T13:07:21.501Z,15.74
2022-09-14T13:09:36.277Z,15.73
2022-09-14T13:11:51.082Z,15.72
2022-09-14T13:14:05.642Z,15.72
2022-09-14T13:16:28.490Z,15.74
2022-09-14T13:18:42.772Z,15.74
2022-09-14T13:20:59.304Z,15.75
2022-09-14T13:23:25.718Z,15.75
2022-09-14T13:25:41.753Z,15.76
2022-09-14T13:27:55.859Z,15.76
2022-09-14T13:30:21.481Z,15.75
2022-09-14T13:32:36.639Z,15.75
2022-09-14T13:34:50.283Z,15.75
2022-09-14T13:37:04.180Z,15.76
2022-09-14T13:39:29.433Z,15.76
2022-09-14T13:41:48.862Z,15.77
2022-09-14T13:44:03.861Z,15.78
2022-09-14T13:46:20.411Z,15.77
2022-09-14T13:48:34.022Z,15.74
2022-09-14T13:50:50.242Z,15.74
2022-09-14T13:53:04.371Z,15.72
2022-09-14T13:55:28.993Z,15.70
2022-09-14T13:57:42.191Z,15.69
2022-09-14T14:00:19.359Z,15.69
2022-09-14T14:02:34.521Z,15.69
2022-09-14T14:04:54.218Z,15.69
2022-09-14T14:07:10.539Z,15.69
2022-09-14T14:09:23.807Z,15.68
2022-09-14T14:11:40.320Z,15.68
2022-09-14T14:13:53.561Z,15.67
2022-09-14T14:16:20.329Z,15.68
2022-09-14T14:18:45.371Z,15.69
2022-09-14T14:21:07.655Z,15.70
2022-09-14T14:23:26.561Z,15.71
2022-09-14T14:25:45.859Z,15.73
2022-09-14T14:28:05.287Z,15.75
2022-09-14T14:30:22.973Z,15.76
2022-09-14T14:32:37.251Z,15.78
2022-09-14T14:34:50.651Z,15.80
2022-09-14T14:37:04.029Z,15.79
2022-09-14T14:39:17.525Z,15.79
2022-09-14T14:41:31.033Z,15.81
2022-09-14T14:43:44.727Z,15.84
2022-09-14T14:46:00.361Z,15.87
2022-09-14T14:48:16.502Z,15.89
2022-09-14T14:50:32.270Z,15.89
2022-09-14T14:52:45.859Z,15.92
2022-09-14T14:54:59.041Z,15.94
2022-09-14T14:57:12.457Z,15.97
2022-09-14T14:59:33.341Z,15.99
2022-09-14T15:01:46.694Z,16.00
2022-09-14T15:04:00.164Z,16.01
2022-09-14T15:06:23.457Z,16.03
2022-09-14T15:08:36.671Z,16.05
2022-09-14T15:10:50.611Z,16.08
2022-09-14T15:13:19.568Z,16.11
2022-09-14T15:15:32.952Z,16.12
2022-09-14T15:17:46.176Z,16.15
2022-09-14T15:19:59.604Z,16.18
2022-09-14T15:22:15.397Z,16.18
2022-09-14T15:24:28.771Z,16.17
2022-09-14T15:26:42.200Z,16.18
2022-09-14T15:28:55.559Z,16.20
2022-09-14T15:31:09.027Z,16.22
2022-09-14T15:33:22.462Z,16.25
2022-09-14T15:35:35.678Z,16.25
2022-09-14T15:37:50.026Z,16.27
2022-09-14T15:40:03.828Z,16.30
2022-09-14T15:42:17.153Z,16.32
2022-09-14T15:44:32.051Z,16.33
2022-09-14T15:46:46.509Z,16.34
2022-09-14T15:49:00.981Z,16.34
2022-09-14T15:51:36.304Z,16.35
2022-09-14T15:53:49.639Z,16.35
2022-09-14T15:56:03.040Z,16.34
2022-09-14T15:58:16.841Z,16.35
2022-09-14T16:00:30.255Z,16.36
2022-09-14T16:02:43.427Z,16.36
2022-09-14T16:04:56.697Z,16.34
2022-09-14T16:07:11.870Z,16.33
2022-09-14T16:09:25.296Z,16.34
2022-09-14T16:11:40.150Z,16.35
2022-09-14T16:13:54.040Z,16.37
2022-09-14T16:16:16.557Z,16.40
2022-09-14T16:18:28.696Z,16.44
2022-09-14T16:20:43.625Z,16.48
2022-09-14T16:22:57.307Z,16.51
2022-09-14T16:25:11.180Z,16.50
2022-09-14T16:27:24.724Z,16.48
2022-09-14T16:29:38.117Z,16.48
2022-09-14T16:31:52.410Z,16.50
2022-09-14T16:34:08.433Z,16.53
2022-09-14T16:36:23.268Z,16.58
2022-09-14T16:38:36.624Z,16.63
2022-09-14T16:40:49.803Z,16.65
2022-09-14T16:43:03.228Z,16.66
2022-09-14T16:45:17.130Z,16.67
2022-09-14T16:47:30.758Z,16.69
2022-09-14T16:49:44.095Z,16.72
2022-09-14T16:51:57.485Z,16.74
2022-09-14T16:54:11.095Z,16.73
2022-09-14T16:56:25.899Z,16.74
2022-09-14T16:58:39.487Z,16.75
2022-09-14T17:00:52.795Z,16.77
2022-09-14T17:03:06.197Z,16.77
2022-09-14T17:05:19.409Z,16.81
2022-09-14T17:07:32.776Z,16.81
2022-09-14T17:09:46.612Z,16.86
2022-09-14T17:12:00.901Z,16.94
2022-09-14T17:14:17.251Z,17.04
2022-09-14T17:16:31.355Z,17.11
2022-09-14T17:18:46.132Z,17.19
2022-09-14T17:21:03.965Z,17.23
2022-09-14T17:23:17.150Z,17.22
2022-09-14T17:25:30.487Z,17.23
2022-09-14T17:27:43.804Z,17.25
2022-09-14T17:29:57.203Z,17.28
2022-09-14T17:32:14.763Z,17.31
2022-09-14T17:34:28.413Z,17.29
2022-09-14T17:36:41.820Z,17.26
2022-09-14T17:38:55.498Z,17.23
2022-09-14T17:41:10.631Z,17.17
2022-09-14T17:43:24.681Z,17.12
2022-09-14T17:45:54.076Z,17.13
2022-09-14T17:48:07.487Z,17.14
2022-09-14T17:50:22.226Z,17.20
2022-09-14T17:52:35.420Z,17.32
2022-09-14T17:54:48.651Z,17.39
2022-09-14T17:57:01.814Z,17.42
2022-09-14T17:59:18.741Z,17.45
2022-09-14T18:01:32.088Z,17.53
2022-09-14T18:03:46.820Z,17.64
2022-09-14T18:06:02.543Z,17.73
2022-09-14T18:08:15.814Z,17.79
2022-09-14T18:10:29.161Z,17.86
2022-09-14T18:12:42.329Z,17.88
2022-09-14T18:14:55.638Z,17.85
2022-09-14T18:17:09.025Z,17.82
2022-09-14T18:19:22.694Z,17.79
2022-09-14T18:21:35.889Z,17.77
2022-09-14T18:23:51.264Z,17.76
2022-09-14T18:26:07.986Z,17.75
2022-09-14T18:28:21.219Z,17.76
2022-09-14T18:30:34.387Z,17.76
2022-09-14T18:32:48.248Z,17.76
2022-09-14T18:35:02.231Z,17.76
2022-09-14T18:37:15.552Z,17.77
2022-09-14T18:39:28.755Z,17.80
2022-09-14T18:41:42.283Z,17.81
2022-09-14T18:43:57.779Z,17.79
2022-09-14T18:46:13.696Z,17.80
2022-09-14T18:48:26.848Z,17.81
2022-09-14T18:50:40.941Z,17.82
2022-09-14T18:52:54.335Z,17.82
2022-09-14T18:55:07.782Z,17.81
2022-09-14T18:57:21.155Z,17.81
2022-09-14T18:59:34.492Z,17.75
2022-09-14T19:01:48.282Z,17.63
2022-09-14T19:04:01.597Z,17.48
2022-09-14T19:06:18.071Z,17.37
2022-09-14T19:08:31.722Z,17.29
2022-09-14T19:10:45.207Z,17.23
2022-09-14T19:12:58.590Z,17.18
2022-09-14T19:15:13.401Z,17.11
2022-09-14T19:17:26.722Z,17.05
2022-09-14T19:19:39.872Z,16.99
2022-09-14T19:21:53.108Z,16.91
2022-09-14T19:24:07.399Z,16.88
2022-09-14T19:26:22.085Z,16.85
2022-09-14T19:28:35.216Z,16.81
2022-09-14T19:30:50.005Z,16.79
2022-09-14T19:33:03.577Z,16.78
2022-09-14T19:35:17.203Z,16.76
2022-09-14T19:37:32.830Z,16.73
2022-09-14T19:39:46.168Z,16.68
2022-09-14T19:41:59.479Z,16.66
2022-09-14T19:44:14.108Z,16.62
2022-09-14T19:46:27.637Z,16.61
2022-09-14T19:48:41.966Z,16.63
2022-09-14T19:50:55.969Z,16.62
2022-09-14T19:53:09.207Z,16.56
2022-09-14T19:55:22.724Z,16.55
2022-09-14T19:57:37.791Z,16.51
2022-09-14T19:59:51.024Z,16.49
2022-09-14T20:02:04.356Z,16.52
2022-09-14T20:04:19.538Z,16.53
2022-09-14T20:06:34.736Z,16.55
2022-09-14T20:08:48.154Z,16.57
2022-09-14T20:11:06.395Z,16.55
2022-09-14T20:13:20.063Z,16.54
2022-09-14T20:15:34.720Z,16.62
2022-09-14T20:17:48.010Z,16.73
2022-09-14T20:20:01.392Z,16.83
2022-09-14T20:22:16.815Z,16.82
2022-09-14T20:24:33.551Z,16.83
2022-09-14T20:26:47.074Z,16.87
2022-09-14T20:29:02.650Z,16.96
2022-09-14T20:31:18.017Z,17.06
2022-09-14T20:33:31.459Z,17.08
2022-09-14T20:35:46.505Z,17.04
2022-09-14T20:38:02.746Z,16.97
2022-09-14T20:40:16.776Z,16.89
2022-09-14T20:42:30.123Z,16.87
2022-09-14T20:44:43.400Z,16.88
2022-09-14T20:46:56.899Z,16.88
2022-09-14T20:49:11.479Z,16.86
2022-09-14T20:51:26.215Z,16.83
2022-09-14T20:53:43.372Z,16.82
2022-09-14T20:55:56.886Z,16.83
2022-09-14T20:58:10.149Z,16.93
2022-09-14T21:00:24.009Z,17.03
2022-09-14T21:02:38.860Z,17.13
2022-09-14T21:04:52.343Z,17.25
2022-09-14T21:07:05.420Z,17.34
2022-09-14T21:09:19.572Z,17.38
2022-09-14T21:11:34.437Z,17.44
2022-09-14T21:13:48.879Z,17.51
2022-09-14T21:16:02.230Z,17.56
2022-09-14T21:18:19.973Z,17.60
2022-09-14T21:20:34.287Z,17.58
2022-09-14T21:22:50.467Z,17.60
2022-09-14T21:25:03.747Z,17.60
2022-09-14T21:27:16.987Z,17.60
2022-09-14T21:29:30.368Z,17.73
2022-09-14T21:31:43.934Z,17.86
2022-09-14T21:34:00.093Z,17.99
2022-09-14T21:36:16.735Z,18.07
2022-09-14T21:38:29.971Z,18.05
2022-09-14T21:40:46.909Z,18.00
2022-09-14T21:43:00.162Z,17.89
2022-09-14T21:45:15.821Z,17.81
2022-09-14T21:47:29.254Z,17.73
2022-09-14T21:49:42.529Z,17.68
2022-09-14T21:51:56.056Z,17.70
2022-09-14T21:54:11.886Z,17.69
2022-09-14T21:56:28.084Z,17.66
2022-09-14T21:58:41.401Z,17.63
2022-09-14T22:01:01.715Z,17.56
2022-09-14T22:03:15.043Z,17.48
2022-09-14T22:05:29.184Z,17.46
2022-09-14T22:07:43.541Z,17.46
2022-09-14T22:09:57.389Z,17.47
2022-09-14T22:12:11.205Z,17.49
2022-09-14T22:14:25.717Z,17.47
2022-09-14T22:16:40.569Z,17.38
2022-09-14T22:18:56.358Z,17.27
2022-09-14T22:21:10.136Z,17.23
2022-09-14T22:23:23.392Z,17.19
2022-09-14T22:25:36.606Z,17.21
2022-09-14T22:27:49.778Z,17.19
2022-09-14T22:30:03.062Z,17.22
2022-09-14T22:32:16.744Z,17.24
2022-09-14T22:34:30.162Z,17.25
2022-09-14T22:36:43.525Z,17.30
2022-09-14T22:38:57.937Z,17.36
2022-09-14T22:41:15.401Z,17.41
2022-09-14T22:43:29.446Z,17.35
2022-09-14T22:45:42.667Z,17.24
2022-09-14T22:47:55.927Z,17.14
2022-09-14T22:50:09.661Z,17.08
2022-09-14T22:52:22.885Z,17.06
2022-09-14T22:54:36.019Z,17.11
2022-09-14T22:56:49.498Z,17.15
2022-09-14T22:59:03.061Z,17.19
2022-09-14T23:01:17.938Z,17.18
2022-09-14T23:03:31.708Z,17.16
2022-09-14T23:05:51.853Z,17.13
2022-09-14T23:08:05.992Z,17.12
2022-09-14T23:10:19.922Z,17.16
2022-09-14T23:12:33.299Z,17.20
2022-09-14T23:14:46.468Z,17.20
2022-09-14T23:16:59.789Z,17.17
2022-09-14T23:19:17.084Z,17.13
2022-09-14T23:21:31.228Z,17.09
2022-09-14T23:23:44.503Z,17.11
2022-09-14T23:25:57.929Z,17.10
2022-09-14T23:28:14.465Z,17.05
2022-09-14T23:30:27.784Z,17.03
2022-09-14T23:32:41.036Z,17.06
2022-09-14T23:34:54.496Z,17.12
2022-09-14T23:37:07.714Z,17.22
2022-09-14T23:39:21.035Z,17.29
2022-09-14T23:41:34.648Z,17.38
2022-09-14T23:43:48.102Z,17.42
2022-09-14T23:46:01.585Z,17.44
2022-09-14T23:48:15.949Z,17.48
2022-09-14T23:50:29.722Z,17.51
2022-09-14T23:52:43.383Z,17.47
2022-09-14T23:54:57.347Z,17.44
2022-09-14T23:57:10.755Z,17.43
2022-09-14T23:59:23.954Z,17.42
